createdAt,value
2023-04-25T00:00:48.885Z,5.81
2023-04-25T00:03:15.766Z,5.87
2023-04-25T00:05:42.705Z,5.81
2023-04-25T00:08:09.476Z,5.84
2023-04-25T00:10:36.374Z,5.79
2023-04-25T00:13:06.092Z,5.83
2023-04-25T00:15:38.855Z,5.78
2023-04-25T00:18:06.822Z,5.76
2023-04-25T00:20:33.625Z,5.70
2023-04-25T00:23:00.348Z,5.68
2023-04-25T00:25:30.417Z,5.59
2023-04-25T00:27:57.102Z,5.53
2023-04-25T00:30:24.031Z,5.54
2023-04-25T00:32:51.667Z,5.51
2023-04-25T00:35:18.768Z,5.41
2023-04-25T00:37:49.565Z,5.33
2023-04-25T00:40:21.390Z,5.22
2023-04-25T00:42:55.119Z,5.14
2023-04-25T00:45:22.311Z,5.15
2023-04-25T00:47:58.331Z,5.14
2023-04-25T00:50:26.558Z,5.18
2023-04-25T00:52:56.882Z,5.23
2023-04-25T00:55:23.720Z,5.31
2023-04-25T00:57:51.290Z,5.32
2023-04-25T01:00:22.546Z,5.35
2023-04-25T01:03:06.444Z,5.31
2023-04-25T01:05:33.566Z,5.21
2023-04-25T01:08:00.966Z,5.13
2023-04-25T01:10:28.310Z,5.02
2023-04-25T01:13:01.246Z,5.02
2023-04-25T01:15:28.136Z,5.07
2023-04-25T01:18:02.044Z,5.03
2023-04-25T01:20:34.174Z,5.08
2023-04-25T01:23:04.040Z,5.05
2023-04-25T01:25:34.830Z,5.12
2023-04-25T01:28:15.936Z,5.21
2023-04-25T01:30:55.912Z,5.20
2023-04-25T01:33:23.219Z,5.20
2023-04-25T01:35:55.667Z,5.21
2023-04-25T01:38:22.765Z,5.14
2023-04-25T01:40:56.125Z,5.10
2023-04-25T01:43:27.533Z,5.02
2023-04-25T01:46:00.726Z,4.95
2023-04-25T01:48:27.524Z,4.94
2023-04-25T01:51:03.927Z,4.93
2023-04-25T01:53:31.807Z,4.98
2023-04-25T01:56:00.750Z,5.00
2023-04-25T01:58:27.534Z,5.03
2023-04-25T02:00:59.964Z,5.09
2023-04-25T02:03:27.167Z,5.06
2023-04-25T02:05:57.183Z,5.04
2023-04-25T02:08:27.820Z,5.04
2023-04-25T02:10:57.685Z,5.04
2023-04-25T02:13:35.630Z,5.00
2023-04-25T02:16:05.725Z,5.00
2023-04-25T02:18:33.053Z,4.93
2023-04-25T02:21:02.144Z,4.85
2023-04-25T02:23:32.158Z,4.70
2023-04-25T02:25:59.369Z,4.62
2023-04-25T02:28:27.037Z,4.58
2023-04-25T02:30:56.864Z,4.59
2023-04-25T02:33:26.705Z,4.58
2023-04-25T02:35:56.786Z,4.55
2023-04-25T02:38:27.025Z,4.41
2023-04-25T02:40:56.657Z,4.31
2023-04-25T02:43:25.949Z,4.26
2023-04-25T02:45:55.935Z,4.09
2023-04-25T02:48:27.112Z,3.92
2023-04-25T02:50:56.772Z,3.89
2023-04-25T02:53:26.072Z,3.84
2023-04-25T02:55:56.258Z,3.92
2023-04-25T02:58:25.669Z,4.02
2023-04-25T03:00:56.097Z,4.11
2023-04-25T03:03:33.113Z,4.22
2023-04-25T03:06:00.042Z,4.25
2023-04-25T03:08:33.659Z,4.23
2023-04-25T03:11:03.051Z,4.27
2023-04-25T03:13:30.902Z,4.25
2023-04-25T03:16:00.188Z,4.25
2023-04-25T03:18:29.655Z,4.27
2023-04-25T03:20:56.762Z,4.26
2023-04-25T03:23:23.384Z,4.30
2023-04-25T03:25:54.436Z,4.34
2023-04-25T03:28:30.321Z,4.31
2023-04-25T03:30:57.103Z,4.29
2023-04-25T03:33:23.914Z,4.25
2023-04-25T03:35:59.282Z,4.26
2023-04-25T03:38:28.993Z,4.23
2023-04-25T03:40:58.976Z,4.17
2023-04-25T03:43:28.153Z,4.21
2023-04-25T03:45:56.022Z,4.22
2023-04-25T03:48:29.980Z,4.23
2023-04-25T03:51:12.910Z,4.26
2023-04-25T03:53:41.990Z,4.28
2023-04-25T03:56:11.839Z,4.28
2023-04-25T03:58:38.575Z,4.28
2023-04-25T04:01:08.516Z,4.29
2023-04-25T04:03:37.492Z,4.28
2023-04-25T04:06:09.812Z,4.30
2023-04-25T04:08:36.738Z,4.35
2023-04-25T04:11:03.617Z,4.36
2023-04-25T04:13:31.180Z,4.40
2023-04-25T04:16:01.657Z,4.43
2023-04-25T04:18:31.772Z,4.48
2023-04-25T04:20:59.262Z,4.51
2023-04-25T04:23:31.069Z,4.56
2023-04-25T04:26:03.781Z,4.54
2023-04-25T04:28:30.747Z,4.57
2023-04-25T04:31:07.675Z,4.57
2023-04-25T05:11:49.181Z,4.91
2023-04-25T05:57:46.906Z,5.58
2023-04-25T06:08:28.480Z,5.85
2023-04-25T06:21:54.299Z,6.12
2023-04-25T06:24:23.391Z,6.25
2023-04-25T06:26:54.614Z,6.33
2023-04-25T06:29:24.160Z,6.23
2023-04-25T06:31:51.221Z,6.32
2023-04-25T06:34:18.282Z,6.34
2023-04-25T06:36:45.587Z,6.31
2023-04-25T06:39:12.457Z,6.50
2023-04-25T06:41:39.195Z,6.47
2023-04-25T06:44:08.657Z,6.55
2023-04-25T06:46:38.914Z,6.73
2023-04-25T06:49:05.816Z,6.78
2023-04-25T06:51:32.563Z,6.86
2023-04-25T06:54:02.316Z,6.77
2023-04-25T06:56:31.925Z,6.78
2023-04-25T06:59:01.879Z,6.74
2023-04-25T07:01:28.528Z,6.83
2023-04-25T07:04:04.505Z,6.86
2023-04-25T07:06:32.074Z,6.83
2023-04-25T07:09:01.646Z,6.80
2023-04-25T07:11:28.293Z,6.77
2023-04-25T07:13:57.085Z,6.84
2023-04-25T07:16:23.787Z,6.84
2023-04-25T07:18:50.638Z,6.94
2023-04-25T07:21:17.456Z,6.92
2023-04-25T07:23:44.071Z,6.73
2023-04-25T07:26:10.873Z,6.77
2023-04-25T07:28:50.871Z,6.66
2023-04-25T07:31:19.253Z,6.56
2023-04-25T07:33:49.628Z,6.53
2023-04-25T07:36:16.604Z,6.47
2023-04-25T07:38:43.449Z,6.55
2023-04-25T07:41:10.124Z,6.83
2023-04-25T07:43:38.942Z,6.94
2023-04-25T07:46:06.179Z,6.88
2023-04-25T07:48:33.129Z,6.93
2023-04-25T07:51:02.467Z,6.82
2023-04-25T07:53:32.150Z,6.80
2023-04-25T07:56:00.715Z,6.67
2023-04-25T07:58:30.541Z,6.72
2023-04-25T08:01:03.084Z,6.94
2023-04-25T08:03:30.211Z,7.04
2023-04-25T08:05:57.282Z,7.27
2023-04-25T08:08:24.188Z,7.52
2023-04-25T08:10:53.562Z,7.64
2023-04-25T08:13:20.283Z,7.85
2023-04-25T08:15:52.281Z,8.18
2023-04-25T08:18:19.646Z,8.31
2023-04-25T08:20:51.820Z,8.49
2023-04-25T08:23:18.790Z,8.75
2023-04-25T08:25:45.509Z,8.96
2023-04-25T08:28:12.267Z,8.89
2023-04-25T08:30:39.021Z,8.80
2023-04-25T08:33:05.839Z,8.79
2023-04-25T08:35:35.509Z,8.65
2023-04-25T08:38:05.774Z,8.51
2023-04-25T08:40:42.990Z,8.41
2023-04-25T08:43:13.533Z,8.59
2023-04-25T08:45:43.100Z,8.66
2023-04-25T08:48:16.889Z,8.71
2023-04-25T08:50:54.193Z,8.78
2023-04-25T08:53:31.610Z,8.88
2023-04-25T08:56:04.478Z,9.09
2023-04-25T08:58:35.376Z,9.49
2023-04-25T09:01:05.334Z,9.59
2023-04-25T09:03:32.697Z,10.00
2023-04-25T09:06:00.034Z,9.74
2023-04-25T09:08:27.048Z,9.65
2023-04-25T09:10:56.779Z,9.36
2023-04-25T09:13:30.372Z,8.99
2023-04-25T09:15:59.114Z,8.79
2023-04-25T09:18:35.407Z,8.81
2023-04-25T09:21:15.020Z,8.94
2023-04-25T09:23:49.663Z,9.19
2023-04-25T09:26:22.366Z,9.04
2023-04-25T09:28:49.175Z,9.17
2023-04-25T09:31:26.266Z,9.41
2023-04-25T09:34:16.560Z,9.65
2023-04-25T09:36:50.566Z,9.44
2023-04-25T09:39:22.477Z,9.24
2023-04-25T09:42:09.826Z,9.13
2023-04-25T09:44:37.261Z,9.16
2023-04-25T09:47:04.792Z,8.96
2023-04-25T09:49:31.454Z,9.23
2023-04-25T09:52:00.386Z,9.55
2023-04-25T09:54:30.078Z,9.79
2023-04-25T09:57:02.270Z,9.99
2023-04-25T09:59:34.360Z,10.17
2023-04-25T10:02:01.408Z,10.11
2023-04-25T10:04:34.211Z,9.87
2023-04-25T10:07:07.322Z,9.75
2023-04-25T10:09:38.318Z,9.93
2023-04-25T10:12:08.165Z,9.91
2023-04-25T10:14:36.681Z,9.85
2023-04-25T10:17:04.200Z,10.73
2023-04-25T10:19:31.612Z,11.59
2023-04-25T10:22:19.669Z,11.24
2023-04-25T10:24:48.393Z,10.80
2023-04-25T10:27:15.735Z,10.10
2023-04-25T10:29:45.955Z,9.68
2023-04-25T10:32:16.076Z,9.09
2023-04-25T10:34:48.221Z,8.80
2023-04-25T10:37:18.225Z,8.56
2023-04-25T10:47:52.262Z,10.75
2023-04-25T10:58:47.290Z,11.58
2023-04-25T11:01:26.360Z,12.13
2023-04-25T11:03:59.651Z,12.87
2023-04-25T11:07:07.170Z,13.43
2023-04-25T11:23:17.050Z,12.42
2023-04-25T11:25:45.570Z,12.68
2023-04-25T11:28:12.322Z,12.09
2023-04-25T11:30:48.755Z,11.73
2023-04-25T11:33:15.639Z,10.88
2023-04-25T11:35:44.335Z,9.98
2023-04-25T11:38:11.972Z,9.81
2023-04-25T11:40:38.951Z,9.17
2023-04-25T11:43:05.871Z,8.94
2023-04-25T11:45:40.362Z,9.13
2023-04-25T11:48:07.738Z,9.11
2023-04-25T11:50:36.917Z,10.52
2023-04-25T11:53:04.021Z,11.46
2023-04-25T11:55:32.041Z,11.52
2023-04-25T11:58:01.778Z,11.24
2023-04-25T12:00:29.182Z,11.67
2023-04-25T12:03:01.674Z,12.57
2023-04-25T12:05:34.816Z,12.67
2023-04-25T12:08:18.552Z,11.17
2023-04-25T12:10:47.911Z,10.65
2023-04-25T12:13:25.515Z,9.82
2023-04-25T12:15:55.194Z,9.40
2023-04-25T12:18:26.734Z,8.98
2023-04-25T12:20:57.376Z,9.08
2023-04-25T12:23:29.225Z,9.66
2023-04-25T12:25:56.856Z,11.43
2023-04-25T12:28:28.006Z,11.53
2023-04-25T12:31:05.369Z,11.91
2023-04-25T12:33:38.913Z,11.58
2023-04-25T12:36:12.083Z,10.88
2023-04-25T12:38:43.741Z,11.04
2023-04-25T12:41:15.713Z,11.87
2023-04-25T12:43:45.354Z,12.58
2023-04-25T12:46:12.216Z,13.02
2023-04-25T12:48:45.501Z,12.99
2023-04-25T12:51:16.987Z,12.49
2023-04-25T12:53:46.798Z,12.48
2023-04-25T12:56:15.966Z,12.42
2023-04-25T12:58:45.021Z,12.56
2023-04-25T13:01:15.765Z,12.30
2023-04-25T13:03:42.635Z,11.67
2023-04-25T13:06:13.858Z,11.87
2023-04-25T13:08:46.119Z,11.55
2023-04-25T13:11:13.151Z,10.02
2023-04-25T13:13:42.024Z,7.93
2023-04-25T13:16:16.461Z,7.34
2023-04-25T13:18:43.395Z,7.57
2023-04-25T13:21:16.721Z,7.90
2023-04-25T13:23:47.696Z,7.90
2023-04-25T13:26:20.678Z,9.05
2023-04-25T13:28:47.362Z,10.10
2023-04-25T13:31:21.618Z,10.82
2023-04-25T13:33:48.610Z,11.59
2023-04-25T13:36:17.520Z,12.32
2023-04-25T13:38:45.908Z,12.66
2023-04-25T13:41:19.616Z,13.48
2023-04-25T13:43:48.809Z,13.54
2023-04-25T13:46:35.353Z,12.98
2023-04-25T14:08:08.972Z,6.68
2023-04-25T14:10:37.355Z,6.51
2023-04-25T14:13:05.640Z,6.97
2023-04-25T14:15:33.732Z,8.26
2023-04-25T14:18:02.421Z,8.10
2023-04-25T14:20:30.192Z,8.21
2023-04-25T14:23:01.341Z,8.20
2023-04-25T14:25:29.024Z,7.96
2023-04-25T14:27:58.879Z,7.67
2023-04-25T14:30:25.610Z,7.35
2023-04-25T14:32:56.624Z,7.17
2023-04-25T14:35:23.912Z,7.39
2023-04-25T14:37:50.627Z,7.96
2023-04-25T14:40:17.971Z,7.65
2023-04-25T14:42:44.796Z,7.56
2023-04-25T14:45:16.815Z,7.29
2023-04-25T14:47:43.587Z,6.80
2023-04-25T14:50:11.454Z,6.33
2023-04-25T14:52:38.243Z,6.01
2023-04-25T14:55:09.318Z,6.14
2023-04-25T14:57:36.507Z,6.39
2023-04-25T15:00:08.142Z,7.12
2023-04-25T15:02:37.933Z,9.40
2023-04-25T15:05:05.709Z,11.01
2023-04-25T15:07:32.653Z,11.42
2023-04-25T15:09:59.334Z,12.36
2023-04-25T15:12:29.117Z,12.22
2023-04-25T15:15:02.714Z,12.10
2023-04-25T15:17:31.998Z,13.00
2023-04-25T15:19:58.732Z,12.94
2023-04-25T15:22:25.510Z,12.60
2023-04-25T15:24:56.645Z,11.44
2023-04-25T15:27:24.421Z,10.79
2023-04-25T15:29:51.103Z,10.10
2023-04-25T15:32:18.128Z,9.21
2023-04-25T15:34:44.910Z,8.95
2023-04-25T15:37:11.985Z,8.61
2023-04-25T15:39:38.677Z,8.41
2023-04-25T15:42:05.448Z,7.83
2023-04-25T15:44:32.247Z,6.87
2023-04-25T15:46:59.013Z,6.57
2023-04-25T15:49:25.919Z,7.99
2023-04-25T15:51:54.488Z,8.65
2023-04-25T15:54:22.097Z,8.37
2023-04-25T15:56:51.555Z,7.50
2023-04-25T15:59:28.942Z,7.19
2023-04-25T16:01:58.071Z,8.30
2023-04-25T16:04:26.657Z,9.74
2023-04-25T16:06:58.552Z,9.72
2023-04-25T16:09:25.349Z,8.90
2023-04-25T16:11:54.319Z,8.18
2023-04-25T16:14:21.337Z,7.56
2023-04-25T16:16:48.169Z,7.08
2023-04-25T16:19:17.408Z,6.70
2023-04-25T16:21:44.531Z,6.15
2023-04-25T16:24:20.103Z,6.79
2023-04-25T16:26:49.390Z,6.15
2023-04-25T16:29:22.535Z,5.76
2023-04-25T16:31:49.314Z,5.39
2023-04-25T16:34:19.412Z,5.22
2023-04-25T16:36:46.071Z,5.14
2023-04-25T16:39:12.831Z,5.04
2023-04-25T16:41:42.007Z,5.07
2023-04-25T16:44:09.210Z,5.11
2023-04-25T16:46:36.380Z,5.20
2023-04-25T16:49:03.391Z,5.29
2023-04-25T16:51:33.535Z,5.37
2023-04-25T16:54:01.204Z,5.39
2023-04-25T16:56:28.003Z,5.39
2023-04-25T16:59:00.470Z,5.34
2023-04-25T17:01:27.572Z,5.34
2023-04-25T17:12:04.889Z,5.97
2023-04-25T17:22:43.801Z,5.50
2023-04-25T18:41:53.580Z,3.42
2023-04-25T18:44:29.430Z,3.37
2023-04-25T20:02:39.213Z,2.58
2023-04-25T20:05:10.057Z,2.59
2023-04-25T20:07:46.275Z,2.63
2023-04-25T20:10:14.432Z,2.65
2023-04-25T20:12:45.384Z,2.68
2023-04-25T20:15:12.779Z,2.68
2023-04-25T20:17:41.703Z,2.81
2023-04-25T20:20:12.461Z,2.83
2023-04-25T20:22:43.781Z,2.86
2023-04-25T20:25:13.586Z,2.83
2023-04-25T20:27:43.355Z,2.80
2023-04-25T20:30:12.062Z,2.86
2023-04-25T20:32:40.322Z,2.90
2023-04-25T20:35:13.257Z,2.97
2023-04-25T20:37:43.079Z,3.03
2023-04-25T20:40:10.412Z,3.05
2023-04-25T20:42:38.446Z,3.07
2023-04-25T20:45:16.027Z,3.07
2023-04-25T20:47:45.004Z,3.09
2023-04-25T20:50:12.202Z,3.15
2023-04-25T20:52:39.157Z,3.13
2023-04-25T20:55:15.960Z,3.07
2023-04-25T20:57:43.178Z,3.10
2023-04-25T21:03:07.828Z,3.09
2023-04-25T21:05:34.778Z,3.07
2023-04-25T21:08:04.919Z,3.05
2023-04-25T21:10:32.222Z,2.96
2023-04-25T21:13:02.200Z,2.88
2023-04-25T21:15:30.075Z,2.92
2023-04-25T21:17:56.782Z,2.85
2023-04-25T21:20:27.099Z,2.84
2023-04-25T21:22:56.685Z,2.77
2023-04-25T21:25:31.209Z,2.73
2023-04-25T21:28:00.201Z,2.68
2023-04-25T21:30:30.833Z,2.58
2023-04-25T21:32:57.705Z,2.58
2023-04-25T21:35:27.583Z,2.59
2023-04-25T21:37:57.339Z,2.64
2023-04-25T21:40:27.156Z,2.76
2023-04-25T21:42:56.870Z,2.88
2023-04-25T21:45:29.037Z,2.99
2023-04-25T21:47:55.825Z,3.07
2023-04-25T21:50:22.825Z,3.02
2023-04-25T21:52:54.331Z,2.90
2023-04-25T21:55:22.140Z,2.86
2023-04-25T21:57:48.889Z,2.79
2023-04-25T22:00:27.992Z,2.69
2023-04-25T22:03:15.984Z,2.60
2023-04-25T22:05:44.453Z,2.50
2023-04-25T22:08:13.633Z,2.38
2023-04-25T22:10:43.474Z,2.28
2023-04-25T22:13:10.285Z,2.19
2023-04-25T22:15:38.085Z,2.14
2023-04-25T22:18:06.218Z,2.12
2023-04-25T22:20:33.299Z,2.08
2023-04-25T22:23:00.205Z,2.06
2023-04-25T22:25:27.230Z,1.96
2023-04-25T22:27:57.336Z,1.85
2023-04-25T22:30:26.912Z,1.85
2023-04-25T22:32:57.887Z,1.82
2023-04-25T22:35:29.765Z,1.76
2023-04-25T22:37:56.756Z,1.69
2023-04-25T22:40:24.073Z,1.70
2023-04-25T22:42:50.844Z,1.79
2023-04-25T22:45:17.843Z,1.80
2023-04-25T22:47:44.726Z,1.71
2023-04-25T22:50:16.860Z,1.73
2023-04-25T22:52:46.784Z,1.66
2023-04-25T22:55:16.786Z,1.66
2023-04-25T22:57:43.718Z,1.64
2023-04-25T23:00:20.205Z,1.74
2023-04-25T23:02:48.630Z,1.76
2023-04-25T23:05:18.886Z,1.75
2023-04-25T23:07:45.711Z,1.72
2023-04-25T23:10:14.025Z,1.72
2023-04-25T23:12:44.007Z,1.68
2023-04-25T23:15:14.669Z,1.61
2023-04-25T23:17:44.494Z,1.66
2023-04-25T23:20:16.818Z,1.65
2023-04-25T23:22:43.646Z,1.58
2023-04-25T23:25:10.719Z,1.56
2023-04-25T23:27:38.095Z,1.59
2023-04-25T23:30:10.482Z,1.56
2023-04-25T23:32:38.650Z,1.56
2023-04-25T23:35:06.720Z,1.58
2023-04-25T23:37:38.622Z,1.57
2023-04-25T23:40:10.188Z,1.56
2023-04-25T23:42:42.507Z,1.59
2023-04-25T23:45:10.111Z,1.59
2023-04-25T23:47:37.524Z,1.58
2023-04-25T23:50:08.024Z,1.58
2023-04-25T23:52:36.080Z,1.67
2023-04-25T23:55:05.387Z,1.72
2023-04-25T23:57:32.953Z,1.69
